sensor_id;sensor_type;location;lat;lon;timestamp;temperature;humidity
59505;DHT22;45321;53.200;5.814;2023-07-13T00:00:28;19.30;71.10
59505;DHT22;45321;53.200;5.814;2023-07-13T00:02:56;19.30;71.20
59505;DHT22;45321;53.200;5.814;2023-07-13T00:05:22;19.30;70.90
59505;DHT22;45321;53.200;5.814;2023-07-13T00:07:49;19.30;71.00
59505;DHT22;45321;53.200;5.814;2023-07-13T00:10:16;19.30;71.20
59505;DHT22;45321;53.200;5.814;2023-07-13T00:12:43;19.30;71.00
59505;DHT22;45321;53.200;5.814;2023-07-13T00:15:24;19.30;71.10
59505;DHT22;45321;53.200;5.814;2023-07-13T00:17:52;19.30;71.20
59505;DHT22;45321;53.200;5.814;2023-07-13T00:20:18;19.30;71.50
59505;DHT22;45321;53.200;5.814;2023-07-13T00:22:47;19.20;71.40
59505;DHT22;45321;53.200;5.814;2023-07-13T00:25:13;19.20;71.40
59505;DHT22;45321;53.200;5.814;2023-07-13T00:27:39;19.20;71.20
59505;DHT22;45321;53.200;5.814;2023-07-13T00:30:05;19.20;71.10
59505;DHT22;45321;53.200;5.814;2023-07-13T00:32:32;19.20;71.40
59505;DHT22;45321;53.200;5.814;2023-07-13T00:34:57;19.20;71.10
59505;DHT22;45321;53.200;5.814;2023-07-13T00:37:25;19.20;71.20
59505;DHT22;45321;53.200;5.814;2023-07-13T00:39:51;19.20;70.80
59505;DHT22;45321;53.200;5.814;2023-07-13T00:42:17;19.10;70.80
59505;DHT22;45321;53.200;5.814;2023-07-13T00:47:50;19.00;70.80
59505;DHT22;45321;53.200;5.814;2023-07-13T00:50:16;19.00;70.70
59505;DHT22;45321;53.200;5.814;2023-07-13T00:52:46;19.00;71.10
59505;DHT22;45321;53.200;5.814;2023-07-13T00:55:14;19.00;70.90
59505;DHT22;45321;53.200;5.814;2023-07-13T00:57:41;19.00;70.60
59505;DHT22;45321;53.200;5.814;2023-07-13T01:00:08;19.00;70.70
59505;DHT22;45321;53.200;5.814;2023-07-13T01:02:39;18.90;70.70
59505;DHT22;45321;53.200;5.814;2023-07-13T01:05:10;18.90;70.80
59505;DHT22;45321;53.200;5.814;2023-07-13T01:07:36;18.90;70.80
59505;DHT22;45321;53.200;5.814;2023-07-13T01:10:03;18.80;70.70
59505;DHT22;45321;53.200;5.814;2023-07-13T01:12:28;18.80;70.60
59505;DHT22;45321;53.200;5.814;2023-07-13T01:14:58;18.80;70.70
59505;DHT22;45321;53.200;5.814;2023-07-13T01:17:26;18.80;70.60
59505;DHT22;45321;53.200;5.814;2023-07-13T01:19:52;18.80;70.90
59505;DHT22;45321;53.200;5.814;2023-07-13T01:22:19;18.70;71.30
59505;DHT22;45321;53.200;5.814;2023-07-13T01:24:48;18.70;71.00
59505;DHT22;45321;53.200;5.814;2023-07-13T01:27:16;18.80;71.20
59505;DHT22;45321;53.200;5.814;2023-07-13T01:29:44;18.70;70.90
59505;DHT22;45321;53.200;5.814;2023-07-13T01:32:21;18.70;70.90
59505;DHT22;45321;53.200;5.814;2023-07-13T01:34:50;18.70;71.10
59505;DHT22;45321;53.200;5.814;2023-07-13T01:37:17;18.70;71.50
59505;DHT22;45321;53.200;5.814;2023-07-13T01:39:42;18.70;71.40
59505;DHT22;45321;53.200;5.814;2023-07-13T01:42:08;18.70;71.60
59505;DHT22;45321;53.200;5.814;2023-07-13T01:44:34;18.70;71.60
59505;DHT22;45321;53.200;5.814;2023-07-13T01:47:01;18.70;71.70
59505;DHT22;45321;53.200;5.814;2023-07-13T01:49:26;18.70;72.10
59505;DHT22;45321;53.200;5.814;2023-07-13T01:51:52;18.70;72.20
59505;DHT22;45321;53.200;5.814;2023-07-13T01:54:18;18.70;72.30
59505;DHT22;45321;53.200;5.814;2023-07-13T01:56:43;18.70;72.40
59505;DHT22;45321;53.200;5.814;2023-07-13T01:59:09;18.70;72.50
59505;DHT22;45321;53.200;5.814;2023-07-13T02:01:35;18.70;72.50
59505;DHT22;45321;53.200;5.814;2023-07-13T02:04:02;18.70;72.70
59505;DHT22;45321;53.200;5.814;2023-07-13T02:06:28;18.60;73.30
59505;DHT22;45321;53.200;5.814;2023-07-13T02:08:54;18.60;73.40
59505;DHT22;45321;53.200;5.814;2023-07-13T02:11:20;18.50;73.50
59505;DHT22;45321;53.200;5.814;2023-07-13T02:13:45;18.60;73.80
59505;DHT22;45321;53.200;5.814;2023-07-13T02:16:11;18.60;74.20
59505;DHT22;45321;53.200;5.814;2023-07-13T02:18:37;18.50;74.30
59505;DHT22;45321;53.200;5.814;2023-07-13T02:21:03;18.50;74.30
59505;DHT22;45321;53.200;5.814;2023-07-13T02:23:29;18.50;74.10
59505;DHT22;45321;53.200;5.814;2023-07-13T02:25:59;18.50;74.60
59505;DHT22;45321;53.200;5.814;2023-07-13T02:28:26;18.50;74.70
59505;DHT22;45321;53.200;5.814;2023-07-13T02:30:51;18.50;74.90
59505;DHT22;45321;53.200;5.814;2023-07-13T02:33:17;18.50;74.70
59505;DHT22;45321;53.200;5.814;2023-07-13T02:35:43;18.50;75.70
59505;DHT22;45321;53.200;5.814;2023-07-13T02:38:08;18.50;77.30
59505;DHT22;45321;53.200;5.814;2023-07-13T02:40:34;18.50;76.70
59505;DHT22;45321;53.200;5.814;2023-07-13T02:43:01;18.40;76.90
59505;DHT22;45321;53.200;5.814;2023-07-13T02:45:27;18.40;76.80
59505;DHT22;45321;53.200;5.814;2023-07-13T02:47:54;18.40;78.00
59505;DHT22;45321;53.200;5.814;2023-07-13T02:50:20;18.30;78.40
59505;DHT22;45321;53.200;5.814;2023-07-13T02:52:46;18.30;77.70
59505;DHT22;45321;53.200;5.814;2023-07-13T02:55:12;18.30;77.80
59505;DHT22;45321;53.200;5.814;2023-07-13T02:57:37;18.20;78.40
59505;DHT22;45321;53.200;5.814;2023-07-13T03:00:04;18.20;77.70
59505;DHT22;45321;53.200;5.814;2023-07-13T03:02:34;18.20;78.00
59505;DHT22;45321;53.200;5.814;2023-07-13T03:05:00;18.20;78.00
59505;DHT22;45321;53.200;5.814;2023-07-13T03:07:26;18.20;78.10
59505;DHT22;45321;53.200;5.814;2023-07-13T03:09:58;18.20;78.30
59505;DHT22;45321;53.200;5.814;2023-07-13T03:12:24;18.20;78.30
59505;DHT22;45321;53.200;5.814;2023-07-13T03:14:51;18.20;78.50
59505;DHT22;45321;53.200;5.814;2023-07-13T03:17:17;18.20;78.70
59505;DHT22;45321;53.200;5.814;2023-07-13T03:19:42;18.20;79.30
59505;DHT22;45321;53.200;5.814;2023-07-13T03:22:09;18.10;79.90
59505;DHT22;45321;53.200;5.814;2023-07-13T03:24:35;18.10;79.40
59505;DHT22;45321;53.200;5.814;2023-07-13T03:27:04;18.10;79.80
59505;DHT22;45321;53.200;5.814;2023-07-13T03:29:30;18.10;79.90
59505;DHT22;45321;53.200;5.814;2023-07-13T03:31:56;18.10;80.80
59505;DHT22;45321;53.200;5.814;2023-07-13T03:34:21;18.10;80.40
59505;DHT22;45321;53.200;5.814;2023-07-13T03:36:47;18.10;80.70
59505;DHT22;45321;53.200;5.814;2023-07-13T03:39:13;18.00;80.00
59505;DHT22;45321;53.200;5.814;2023-07-13T03:41:39;18.00;80.40
59505;DHT22;45321;53.200;5.814;2023-07-13T03:44:04;18.00;80.10
59505;DHT22;45321;53.200;5.814;2023-07-13T03:46:30;18.00;81.10
59505;DHT22;45321;53.200;5.814;2023-07-13T03:48:57;18.00;81.10
59505;DHT22;45321;53.200;5.814;2023-07-13T03:51:23;18.00;81.50
59505;DHT22;45321;53.200;5.814;2023-07-13T03:53:49;18.00;80.90
59505;DHT22;45321;53.200;5.814;2023-07-13T03:56:17;18.00;81.00
59505;DHT22;45321;53.200;5.814;2023-07-13T03:58:45;18.00;81.20
59505;DHT22;45321;53.200;5.814;2023-07-13T04:01:12;18.00;80.30
59505;DHT22;45321;53.200;5.814;2023-07-13T04:03:38;18.00;79.80
59505;DHT22;45321;53.200;5.814;2023-07-13T04:06:05;18.00;80.30
59505;DHT22;45321;53.200;5.814;2023-07-13T04:08:34;18.00;80.30
59505;DHT22;45321;53.200;5.814;2023-07-13T04:11:01;18.00;79.90
59505;DHT22;45321;53.200;5.814;2023-07-13T04:13:27;17.90;80.50
59505;DHT22;45321;53.200;5.814;2023-07-13T04:15:54;17.90;80.80
59505;DHT22;45321;53.200;5.814;2023-07-13T04:18:20;17.90;80.70
59505;DHT22;45321;53.200;5.814;2023-07-13T04:20:49;17.90;80.90
59505;DHT22;45321;53.200;5.814;2023-07-13T04:23:16;17.90;80.90
59505;DHT22;45321;53.200;5.814;2023-07-13T04:25:46;17.90;81.00
59505;DHT22;45321;53.200;5.814;2023-07-13T04:28:15;17.90;80.60
59505;DHT22;45321;53.200;5.814;2023-07-13T04:30:43;17.90;80.20
59505;DHT22;45321;53.200;5.814;2023-07-13T04:33:08;17.90;80.90
59505;DHT22;45321;53.200;5.814;2023-07-13T04:35:34;17.90;80.10
59505;DHT22;45321;53.200;5.814;2023-07-13T04:38:01;17.90;80.50
59505;DHT22;45321;53.200;5.814;2023-07-13T04:40:27;18.00;79.90
59505;DHT22;45321;53.200;5.814;2023-07-13T04:42:53;18.00;80.00
59505;DHT22;45321;53.200;5.814;2023-07-13T04:45:19;17.90;80.00
59505;DHT22;45321;53.200;5.814;2023-07-13T04:47:45;17.90;80.10
59505;DHT22;45321;53.200;5.814;2023-07-13T04:50:13;18.00;80.70
59505;DHT22;45321;53.200;5.814;2023-07-13T04:52:41;18.00;80.90
59505;DHT22;45321;53.200;5.814;2023-07-13T04:55:08;17.90;80.80
59505;DHT22;45321;53.200;5.814;2023-07-13T04:57:33;18.00;80.30
59505;DHT22;45321;53.200;5.814;2023-07-13T04:59:59;18.00;81.60
59505;DHT22;45321;53.200;5.814;2023-07-13T05:02:27;18.00;80.90
59505;DHT22;45321;53.200;5.814;2023-07-13T05:04:53;18.10;81.50
59505;DHT22;45321;53.200;5.814;2023-07-13T05:07:19;18.10;81.70
59505;DHT22;45321;53.200;5.814;2023-07-13T05:09:45;18.10;81.10
59505;DHT22;45321;53.200;5.814;2023-07-13T05:12:11;18.20;80.80
59505;DHT22;45321;53.200;5.814;2023-07-13T05:14:36;18.20;81.70
59505;DHT22;45321;53.200;5.814;2023-07-13T05:17:02;18.20;80.90
59505;DHT22;45321;53.200;5.814;2023-07-13T05:19:28;18.20;80.10
59505;DHT22;45321;53.200;5.814;2023-07-13T05:21:54;18.20;80.10
59505;DHT22;45321;53.200;5.814;2023-07-13T05:24:19;18.20;80.10
59505;DHT22;45321;53.200;5.814;2023-07-13T05:26:45;18.20;79.60
59505;DHT22;45321;53.200;5.814;2023-07-13T05:29:11;18.20;80.00
59505;DHT22;45321;53.200;5.814;2023-07-13T05:31:37;18.20;80.10
59505;DHT22;45321;53.200;5.814;2023-07-13T05:34:02;18.20;79.60
59505;DHT22;45321;53.200;5.814;2023-07-13T05:36:28;18.20;79.70
59505;DHT22;45321;53.200;5.814;2023-07-13T05:38:54;18.20;79.40
59505;DHT22;45321;53.200;5.814;2023-07-13T05:41:19;18.20;79.60
59505;DHT22;45321;53.200;5.814;2023-07-13T05:43:45;18.20;79.60
59505;DHT22;45321;53.200;5.814;2023-07-13T05:46:11;18.20;80.00
59505;DHT22;45321;53.200;5.814;2023-07-13T05:48:36;18.30;80.40
59505;DHT22;45321;53.200;5.814;2023-07-13T05:51:02;18.30;79.80
59505;DHT22;45321;53.200;5.814;2023-07-13T05:53:28;18.40;79.70
59505;DHT22;45321;53.200;5.814;2023-07-13T05:55:54;18.40;79.30
59505;DHT22;45321;53.200;5.814;2023-07-13T05:58:20;18.40;80.20
59505;DHT22;45321;53.200;5.814;2023-07-13T06:00:47;18.50;79.30
59505;DHT22;45321;53.200;5.814;2023-07-13T06:03:13;18.50;78.80
59505;DHT22;45321;53.200;5.814;2023-07-13T06:05:39;18.50;78.10
59505;DHT22;45321;53.200;5.814;2023-07-13T06:08:06;18.60;77.80
59505;DHT22;45321;53.200;5.814;2023-07-13T06:10:33;18.60;76.80
59505;DHT22;45321;53.200;5.814;2023-07-13T06:12:59;18.60;77.60
59505;DHT22;45321;53.200;5.814;2023-07-13T06:15:25;18.60;76.40
59505;DHT22;45321;53.200;5.814;2023-07-13T06:17:51;18.70;76.50
59505;DHT22;45321;53.200;5.814;2023-07-13T06:20:16;18.70;76.30
59505;DHT22;45321;53.200;5.814;2023-07-13T06:22:42;18.70;76.10
59505;DHT22;45321;53.200;5.814;2023-07-13T06:25:08;18.70;75.30
59505;DHT22;45321;53.200;5.814;2023-07-13T06:27:34;18.80;75.10
59505;DHT22;45321;53.200;5.814;2023-07-13T06:30:00;18.90;75.00
59505;DHT22;45321;53.200;5.814;2023-07-13T06:32:26;18.90;74.90
59505;DHT22;45321;53.200;5.814;2023-07-13T06:34:52;19.00;74.40
59505;DHT22;45321;53.200;5.814;2023-07-13T06:37:18;19.10;73.80
59505;DHT22;45321;53.200;5.814;2023-07-13T06:39:44;19.10;74.20
59505;DHT22;45321;53.200;5.814;2023-07-13T06:42:10;19.20;73.60
59505;DHT22;45321;53.200;5.814;2023-07-13T06:44:36;19.30;73.20
59505;DHT22;45321;53.200;5.814;2023-07-13T06:47:02;19.40;72.50
59505;DHT22;45321;53.200;5.814;2023-07-13T06:49:28;19.40;72.00
59505;DHT22;45321;53.200;5.814;2023-07-13T06:51:54;19.50;71.50
59505;DHT22;45321;53.200;5.814;2023-07-13T06:54:19;19.50;71.80
59505;DHT22;45321;53.200;5.814;2023-07-13T06:56:45;19.70;71.20
59505;DHT22;45321;53.200;5.814;2023-07-13T06:59:11;19.70;71.30
59505;DHT22;45321;53.200;5.814;2023-07-13T07:01:37;19.70;71.70
59505;DHT22;45321;53.200;5.814;2023-07-13T07:04:03;19.80;71.60
59505;DHT22;45321;53.200;5.814;2023-07-13T07:06:30;19.80;71.70
59505;DHT22;45321;53.200;5.814;2023-07-13T07:08:55;19.90;70.00
59505;DHT22;45321;53.200;5.814;2023-07-13T07:11:24;20.00;69.30
59505;DHT22;45321;53.200;5.814;2023-07-13T07:13:52;20.00;69.60
59505;DHT22;45321;53.200;5.814;2023-07-13T07:16:19;20.00;68.90
59505;DHT22;45321;53.200;5.814;2023-07-13T07:18:45;20.20;69.70
59505;DHT22;45321;53.200;5.814;2023-07-13T07:21:11;20.20;69.40
59505;DHT22;45321;53.200;5.814;2023-07-13T07:23:37;20.20;69.00
59505;DHT22;45321;53.200;5.814;2023-07-13T07:26:03;20.20;68.10
59505;DHT22;45321;53.200;5.814;2023-07-13T07:28:29;20.20;68.10
59505;DHT22;45321;53.200;5.814;2023-07-13T07:30:57;20.00;67.80
59505;DHT22;45321;53.200;5.814;2023-07-13T07:33:23;20.00;68.20
59505;DHT22;45321;53.200;5.814;2023-07-13T07:35:49;20.00;68.40
59505;DHT22;45321;53.200;5.814;2023-07-13T07:38:15;19.90;68.60
59505;DHT22;45321;53.200;5.814;2023-07-13T07:40:42;20.00;68.90
59505;DHT22;45321;53.200;5.814;2023-07-13T07:43:09;20.00;68.20
59505;DHT22;45321;53.200;5.814;2023-07-13T07:45:35;20.00;67.80
59505;DHT22;45321;53.200;5.814;2023-07-13T07:48:03;20.00;68.30
59505;DHT22;45321;53.200;5.814;2023-07-13T07:50:29;20.00;67.70
59505;DHT22;45321;53.200;5.814;2023-07-13T07:52:55;20.10;68.90
59505;DHT22;45321;53.200;5.814;2023-07-13T07:55:24;20.20;69.30
59505;DHT22;45321;53.200;5.814;2023-07-13T07:57:53;20.20;69.00
59505;DHT22;45321;53.200;5.814;2023-07-13T08:00:19;20.20;69.00
59505;DHT22;45321;53.200;5.814;2023-07-13T08:02:45;20.30;68.60
59505;DHT22;45321;53.200;5.814;2023-07-13T08:05:11;20.30;68.20
59505;DHT22;45321;53.200;5.814;2023-07-13T08:07:37;20.40;69.20
59505;DHT22;45321;53.200;5.814;2023-07-13T08:10:04;20.50;69.70
59505;DHT22;45321;53.200;5.814;2023-07-13T08:12:34;20.60;69.10
59505;DHT22;45321;53.200;5.814;2023-07-13T08:15:00;20.60;67.70
59505;DHT22;45321;53.200;5.814;2023-07-13T08:17:26;20.60;67.40
59505;DHT22;45321;53.200;5.814;2023-07-13T08:19:52;20.70;67.70
59505;DHT22;45321;53.200;5.814;2023-07-13T08:22:18;20.70;68.00
59505;DHT22;45321;53.200;5.814;2023-07-13T08:24:43;20.70;66.80
59505;DHT22;45321;53.200;5.814;2023-07-13T08:27:10;20.70;66.10
59505;DHT22;45321;53.200;5.814;2023-07-13T08:29:37;20.50;66.60
59505;DHT22;45321;53.200;5.814;2023-07-13T08:32:05;20.50;66.70
59505;DHT22;45321;53.200;5.814;2023-07-13T08:34:31;20.60;66.90
59505;DHT22;45321;53.200;5.814;2023-07-13T08:36:57;20.70;66.30
59505;DHT22;45321;53.200;5.814;2023-07-13T08:39:23;20.70;66.90
59505;DHT22;45321;53.200;5.814;2023-07-13T08:41:54;20.80;65.40
59505;DHT22;45321;53.200;5.814;2023-07-13T08:44:30;20.90;65.10
59505;DHT22;45321;53.200;5.814;2023-07-13T08:46:58;21.00;63.90
59505;DHT22;45321;53.200;5.814;2023-07-13T08:49:25;21.20;63.80
59505;DHT22;45321;53.200;5.814;2023-07-13T08:52:00;21.30;63.80
59505;DHT22;45321;53.200;5.814;2023-07-13T08:56:53;21.50;64.60
59505;DHT22;45321;53.200;5.814;2023-07-13T08:59:22;21.60;65.50
59505;DHT22;45321;53.200;5.814;2023-07-13T09:04:57;21.70;64.50
59505;DHT22;45321;53.200;5.814;2023-07-13T09:10:05;21.60;63.20
59505;DHT22;45321;53.200;5.814;2023-07-13T09:15:43;21.60;63.70
59505;DHT22;45321;53.200;5.814;2023-07-13T09:20:47;21.60;64.00
59505;DHT22;45321;53.200;5.814;2023-07-13T09:23:23;21.50;62.40
59505;DHT22;45321;53.200;5.814;2023-07-13T09:25:54;21.50;62.90
59505;DHT22;45321;53.200;5.814;2023-07-13T09:28:29;21.30;62.70
59505;DHT22;45321;53.200;5.814;2023-07-13T09:31:09;21.30;62.90
59505;DHT22;45321;53.200;5.814;2023-07-13T09:33:38;21.40;62.50
59505;DHT22;45321;53.200;5.814;2023-07-13T09:36:25;21.50;61.90
59505;DHT22;45321;53.200;5.814;2023-07-13T09:39:03;21.70;61.90
59505;DHT22;45321;53.200;5.814;2023-07-13T09:44:15;21.90;60.90
59505;DHT22;45321;53.200;5.814;2023-07-13T09:46:53;22.00;59.70
59505;DHT22;45321;53.200;5.814;2023-07-13T09:49:27;22.10;60.60
59505;DHT22;45321;53.200;5.814;2023-07-13T09:51:59;22.10;60.30
59505;DHT22;45321;53.200;5.814;2023-07-13T09:54:26;22.20;61.00
59505;DHT22;45321;53.200;5.814;2023-07-13T09:56:56;22.30;60.70
59505;DHT22;45321;53.200;5.814;2023-07-13T09:59:26;22.40;60.20
59505;DHT22;45321;53.200;5.814;2023-07-13T10:01:52;22.50;60.40
59505;DHT22;45321;53.200;5.814;2023-07-13T10:04:19;22.60;60.70
59505;DHT22;45321;53.200;5.814;2023-07-13T10:06:46;22.80;58.80
59505;DHT22;45321;53.200;5.814;2023-07-13T10:09:16;22.70;58.40
59505;DHT22;45321;53.200;5.814;2023-07-13T10:11:43;22.60;58.60
59505;DHT22;45321;53.200;5.814;2023-07-13T10:14:16;22.40;58.50
59505;DHT22;45321;53.200;5.814;2023-07-13T10:16:45;22.20;59.40
59505;DHT22;45321;53.200;5.814;2023-07-13T10:19:27;22.20;59.50
59505;DHT22;45321;53.200;5.814;2023-07-13T10:24:32;22.30;59.80
59505;DHT22;45321;53.200;5.814;2023-07-13T10:27:08;22.30;59.60
59505;DHT22;45321;53.200;5.814;2023-07-13T10:29:46;22.40;59.10
59505;DHT22;45321;53.200;5.814;2023-07-13T10:32:13;22.40;58.10
59505;DHT22;45321;53.200;5.814;2023-07-13T10:34:45;22.60;59.60
59505;DHT22;45321;53.200;5.814;2023-07-13T10:37:24;22.50;58.10
59505;DHT22;45321;53.200;5.814;2023-07-13T10:39:54;22.60;59.00
59505;DHT22;45321;53.200;5.814;2023-07-13T10:42:33;22.70;58.90
59505;DHT22;45321;53.200;5.814;2023-07-13T10:45:00;22.80;58.70
59505;DHT22;45321;53.200;5.814;2023-07-13T10:47:27;22.90;58.10
59505;DHT22;45321;53.200;5.814;2023-07-13T10:49:55;23.00;58.80
59505;DHT22;45321;53.200;5.814;2023-07-13T10:52:49;22.90;58.30
59505;DHT22;45321;53.200;5.814;2023-07-13T10:55:40;23.00;59.00
59505;DHT22;45321;53.200;5.814;2023-07-13T10:58:39;23.20;57.70
59505;DHT22;45321;53.200;5.814;2023-07-13T11:01:17;23.20;57.40
59505;DHT22;45321;53.200;5.814;2023-07-13T11:21:31;23.30;56.40
59505;DHT22;45321;53.200;5.814;2023-07-13T11:29:34;23.30;55.60
59505;DHT22;45321;53.200;5.814;2023-07-13T11:32:22;23.30;56.50
59505;DHT22;45321;53.200;5.814;2023-07-13T11:34:48;23.40;55.40
59505;DHT22;45321;53.200;5.814;2023-07-13T11:37:17;23.50;55.00
59505;DHT22;45321;53.200;5.814;2023-07-13T11:39:45;23.60;55.50
59505;DHT22;45321;53.200;5.814;2023-07-13T11:42:13;23.70;54.80
59505;DHT22;45321;53.200;5.814;2023-07-13T11:44:48;23.70;54.50
59505;DHT22;45321;53.200;5.814;2023-07-13T11:47:20;23.70;55.00
59505;DHT22;45321;53.200;5.814;2023-07-13T11:49:54;23.80;54.50
59505;DHT22;45321;53.200;5.814;2023-07-13T11:52:34;23.90;53.70
59505;DHT22;45321;53.200;5.814;2023-07-13T11:55:03;24.00;54.00
59505;DHT22;45321;53.200;5.814;2023-07-13T11:57:32;24.00;53.20
59505;DHT22;45321;53.200;5.814;2023-07-13T12:00:02;24.10;53.70
59505;DHT22;45321;53.200;5.814;2023-07-13T12:02:33;24.20;54.30
59505;DHT22;45321;53.200;5.814;2023-07-13T12:05:00;24.30;55.20
59505;DHT22;45321;53.200;5.814;2023-07-13T12:07:30;24.40;54.90
59505;DHT22;45321;53.200;5.814;2023-07-13T12:10:26;24.60;54.60
59505;DHT22;45321;53.200;5.814;2023-07-13T12:13:00;24.70;55.40
59505;DHT22;45321;53.200;5.814;2023-07-13T12:15:40;24.70;53.60
59505;DHT22;45321;53.200;5.814;2023-07-13T12:18:15;24.50;53.10
59505;DHT22;45321;53.200;5.814;2023-07-13T12:20:41;24.40;55.90
59505;DHT22;45321;53.200;5.814;2023-07-13T12:23:34;24.30;55.70
59505;DHT22;45321;53.200;5.814;2023-07-13T12:26:06;24.20;55.90
59505;DHT22;45321;53.200;5.814;2023-07-13T12:28:58;24.20;56.30
59505;DHT22;45321;53.200;5.814;2023-07-13T12:31:36;24.20;56.30
59505;DHT22;45321;53.200;5.814;2023-07-13T12:34:18;24.50;59.10
59505;DHT22;45321;53.200;5.814;2023-07-13T12:39:25;24.50;55.10
59505;DHT22;45321;53.200;5.814;2023-07-13T12:41:52;24.60;56.40
59505;DHT22;45321;53.200;5.814;2023-07-13T12:44:30;24.70;57.90
59505;DHT22;45321;53.200;5.814;2023-07-13T12:47:04;24.70;57.30
59505;DHT22;45321;53.200;5.814;2023-07-13T12:49:33;24.80;56.40
59505;DHT22;45321;53.200;5.814;2023-07-13T12:52:03;24.90;56.80
59505;DHT22;45321;53.200;5.814;2023-07-13T12:54:31;24.90;56.50
59505;DHT22;45321;53.200;5.814;2023-07-13T12:56:59;24.90;57.00
59505;DHT22;45321;53.200;5.814;2023-07-13T12:59:29;25.00;56.70
59505;DHT22;45321;53.200;5.814;2023-07-13T13:01:59;25.10;56.00
59505;DHT22;45321;53.200;5.814;2023-07-13T13:04:25;25.00;55.50
59505;DHT22;45321;53.200;5.814;2023-07-13T13:07:01;24.80;55.50
59505;DHT22;45321;53.200;5.814;2023-07-13T13:09:27;24.70;55.70
59505;DHT22;45321;53.200;5.814;2023-07-13T13:11:53;24.50;56.50
59505;DHT22;45321;53.200;5.814;2023-07-13T13:14:18;24.50;57.20
59505;DHT22;45321;53.200;5.814;2023-07-13T13:16:49;24.60;59.20
59505;DHT22;45321;53.200;5.814;2023-07-13T13:19:18;24.80;58.80
59505;DHT22;45321;53.200;5.814;2023-07-13T13:21:45;24.90;58.50
59505;DHT22;45321;53.200;5.814;2023-07-13T13:24:16;24.90;56.60
59505;DHT22;45321;53.200;5.814;2023-07-13T13:26:43;25.00;56.90
59505;DHT22;45321;53.200;5.814;2023-07-13T13:29:17;25.00;55.70
59505;DHT22;45321;53.200;5.814;2023-07-13T13:31:44;25.00;55.10
59505;DHT22;45321;53.200;5.814;2023-07-13T13:34:11;24.90;55.90
59505;DHT22;45321;53.200;5.814;2023-07-13T13:36:37;24.80;55.10
59505;DHT22;45321;53.200;5.814;2023-07-13T13:39:22;24.70;55.80
59505;DHT22;45321;53.200;5.814;2023-07-13T13:41:50;24.70;55.50
59505;DHT22;45321;53.200;5.814;2023-07-13T13:44:17;24.50;56.60
59505;DHT22;45321;53.200;5.814;2023-07-13T13:46:45;24.50;56.30
59505;DHT22;45321;53.200;5.814;2023-07-13T13:49:17;24.40;56.60
59505;DHT22;45321;53.200;5.814;2023-07-13T13:51:44;24.40;56.50
59505;DHT22;45321;53.200;5.814;2023-07-13T13:54:14;24.40;56.90
59505;DHT22;45321;53.200;5.814;2023-07-13T13:56:46;24.40;56.10
59505;DHT22;45321;53.200;5.814;2023-07-13T13:59:13;24.50;56.60
59505;DHT22;45321;53.200;5.814;2023-07-13T14:01:41;24.60;57.80
59505;DHT22;45321;53.200;5.814;2023-07-13T14:04:27;24.80;57.90
59505;DHT22;45321;53.200;5.814;2023-07-13T14:06:53;24.90;56.60
59505;DHT22;45321;53.200;5.814;2023-07-13T14:09:19;25.00;55.50
59505;DHT22;45321;53.200;5.814;2023-07-13T14:11:46;25.00;56.30
59505;DHT22;45321;53.200;5.814;2023-07-13T14:14:17;25.00;55.60
59505;DHT22;45321;53.200;5.814;2023-07-13T14:16:44;25.10;56.30
59505;DHT22;45321;53.200;5.814;2023-07-13T14:19:13;25.30;55.90
59505;DHT22;45321;53.200;5.814;2023-07-13T14:21:39;25.30;55.50
59505;DHT22;45321;53.200;5.814;2023-07-13T14:24:05;25.20;55.00
59505;DHT22;45321;53.200;5.814;2023-07-13T14:26:38;25.00;54.90
59505;DHT22;45321;53.200;5.814;2023-07-13T14:29:11;25.00;55.00
59505;DHT22;45321;53.200;5.814;2023-07-13T14:31:37;25.10;55.20
59505;DHT22;45321;53.200;5.814;2023-07-13T14:34:03;25.10;55.10
59505;DHT22;45321;53.200;5.814;2023-07-13T14:36:32;25.00;54.90
59505;DHT22;45321;53.200;5.814;2023-07-13T14:38:59;24.90;54.70
59505;DHT22;45321;53.200;5.814;2023-07-13T14:41:26;24.80;54.50
59505;DHT22;45321;53.200;5.814;2023-07-13T14:43:52;24.70;54.60
59505;DHT22;45321;53.200;5.814;2023-07-13T14:46:29;24.60;55.10
59505;DHT22;45321;53.200;5.814;2023-07-13T14:49:11;24.40;54.80
59505;DHT22;45321;53.200;5.814;2023-07-13T14:51:37;24.40;56.20
59505;DHT22;45321;53.200;5.814;2023-07-13T14:54:05;24.50;55.60
59505;DHT22;45321;53.200;5.814;2023-07-13T14:56:31;24.60;56.50
59505;DHT22;45321;53.200;5.814;2023-07-13T14:58:57;24.70;56.50
59505;DHT22;45321;53.200;5.814;2023-07-13T15:01:23;24.70;56.20
59505;DHT22;45321;53.200;5.814;2023-07-13T15:03:51;24.60;56.10
59505;DHT22;45321;53.200;5.814;2023-07-13T15:06:17;24.70;56.60
59505;DHT22;45321;53.200;5.814;2023-07-13T15:08:44;24.70;55.20
59505;DHT22;45321;53.200;5.814;2023-07-13T15:11:10;24.70;56.70
59505;DHT22;45321;53.200;5.814;2023-07-13T15:13:41;24.70;56.00
59505;DHT22;45321;53.200;5.814;2023-07-13T15:16:18;24.70;55.90
59505;DHT22;45321;53.200;5.814;2023-07-13T15:18:46;24.70;56.00
59505;DHT22;45321;53.200;5.814;2023-07-13T15:21:20;24.70;55.60
59505;DHT22;45321;53.200;5.814;2023-07-13T15:23:46;24.60;55.10
59505;DHT22;45321;53.200;5.814;2023-07-13T15:26:16;24.50;55.70
59505;DHT22;45321;53.200;5.814;2023-07-13T15:28:43;24.50;57.10
59505;DHT22;45321;53.200;5.814;2023-07-13T15:31:22;24.50;57.40
59505;DHT22;45321;53.200;5.814;2023-07-13T15:33:49;24.30;56.50
59505;DHT22;45321;53.200;5.814;2023-07-13T15:36:17;24.20;57.20
59505;DHT22;45321;53.200;5.814;2023-07-13T15:38:43;24.20;57.80
59505;DHT22;45321;53.200;5.814;2023-07-13T15:41:20;24.20;56.90
59505;DHT22;45321;53.200;5.814;2023-07-13T15:43:49;24.20;57.70
59505;DHT22;45321;53.200;5.814;2023-07-13T15:46:17;24.10;57.40
59505;DHT22;45321;53.200;5.814;2023-07-13T15:48:43;24.20;57.80
59505;DHT22;45321;53.200;5.814;2023-07-13T15:51:15;24.20;58.30
59505;DHT22;45321;53.200;5.814;2023-07-13T15:53:43;24.10;57.50
59505;DHT22;45321;53.200;5.814;2023-07-13T15:56:21;24.10;58.20
59505;DHT22;45321;53.200;5.814;2023-07-13T15:58:48;24.10;57.10
59505;DHT22;45321;53.200;5.814;2023-07-13T16:01:15;24.00;57.30
59505;DHT22;45321;53.200;5.814;2023-07-13T16:03:41;24.00;57.40
59505;DHT22;45321;53.200;5.814;2023-07-13T16:06:18;23.90;57.40
59505;DHT22;45321;53.200;5.814;2023-07-13T16:08:45;23.90;58.30
59505;DHT22;45321;53.200;5.814;2023-07-13T16:11:20;23.90;57.90
59505;DHT22;45321;53.200;5.814;2023-07-13T16:13:47;23.90;58.50
59505;DHT22;45321;53.200;5.814;2023-07-13T16:16:14;23.80;58.40
59505;DHT22;45321;53.200;5.814;2023-07-13T16:18:40;23.80;58.50
59505;DHT22;45321;53.200;5.814;2023-07-13T16:21:13;23.80;58.60
59505;DHT22;45321;53.200;5.814;2023-07-13T16:23:41;23.80;58.90
59505;DHT22;45321;53.200;5.814;2023-07-13T16:28:51;23.70;58.40